Time;durP1;ratioP1;P1;durP2;ratioP2;P2;SDS_P1;SDS_P2;PMS_P1;PMS_P2;Temp;Humidity;BMP_temperature;BMP_pressure;BME280_temperature;BME280_humidity;BME280_pressure;Samples;Min_cycle;Max_cycle;Signal;HPM_P1;HPM_P2
2021/09/17 00:01:54;;;;;;;6.03;2.65;;;;;;;23.67;48.13;101717.50;1765850;80;21002;-52
2021/09/17 00:04:20;;;;;;;4.00;2.25;;;;;;;23.67;48.21;101716.17;1766975;80;21056;-47
2021/09/17 00:06:47;;;;;;;5.70;2.30;;;;;;;23.66;48.46;101710.45;1768571;80;21009;-50
2021/09/17 00:09:15;;;;;;;5.00;2.92;;;;;;;23.65;48.55;101716.73;1781089;80;20991;-47
2021/09/17 00:11:44;;;;;;;3.22;2.45;;;;;;;23.65;48.67;101711.42;1776978;80;21026;-51
2021/09/17 00:14:12;;;;;;;2.75;2.35;;;;;;;23.63;48.80;101705.34;1769446;80;21549;-49
2021/09/17 00:16:39;;;;;;;5.12;2.40;;;;;;;23.64;48.96;101706.21;1769044;80;21041;-49
2021/09/17 00:19:07;;;;;;;2.90;2.40;;;;;;;23.65;48.97;101706.57;1767385;80;21037;-51
2021/09/17 00:21:34;;;;;;;5.37;2.10;;;;;;;23.65;48.94;101704.78;1766340;80;21510;-50
2021/09/17 00:24:02;;;;;;;3.62;2.10;;;;;;;23.66;48.92;101696.34;1765868;80;21045;-51
2021/09/17 00:26:29;;;;;;;3.83;2.08;;;;;;;23.67;49.00;101696.23;1765971;80;21534;-50
2021/09/17 00:28:56;;;;;;;6.42;2.27;;;;;;;23.67;49.12;101694.91;1762527;80;20974;-50
2021/09/17 00:31:22;;;;;;;3.55;2.08;;;;;;;23.67;49.19;101692.25;1769125;80;21010;-50
2021/09/17 00:33:50;;;;;;;4.47;2.30;;;;;;;23.66;49.25;101685.72;1768527;80;21006;-48
2021/09/17 00:36:17;;;;;;;3.35;2.10;;;;;;;23.64;49.33;101691.09;1769558;80;21000;-47
2021/09/17 00:38:43;;;;;;;4.97;2.62;;;;;;;23.62;49.57;101686.85;1772838;80;21525;-51
2021/09/17 00:41:13;;;;;;;6.72;2.47;;;;;;;23.60;49.50;101688.25;1771557;80;21057;-49
2021/09/17 00:43:41;;;;;;;2.40;2.20;;;;;;;23.56;49.62;101686.73;1769126;80;21010;-47
2021/09/17 00:46:08;;;;;;;4.87;2.83;;;;;;;23.54;49.93;101678.00;1771820;80;21553;-51
2021/09/17 00:48:35;;;;;;;3.30;2.12;;;;;;;23.54;50.19;101679.33;1765557;80;21001;-47
2021/09/17 00:51:03;;;;;;;5.83;2.50;;;;;;;23.53;50.39;101672.32;1766335;80;21553;-47
2021/09/17 00:53:33;;;;;;;7.20;2.25;;;;;;;23.54;50.47;101677.13;1775628;80;21039;-50
2021/09/17 00:56:02;;;;;;;2.47;2.25;;;;;;;23.54;50.36;101663.39;1714444;83;21077;-46
2021/09/17 00:58:29;;;;;;;4.75;2.47;;;;;;;23.55;50.56;101655.81;1714923;83;21521;-51
2021/09/17 01:00:56;;;;;;;2.98;2.20;;;;;;;23.56;50.57;101652.19;1713227;83;21066;-47
2021/09/17 01:03:23;;;;;;;2.58;2.37;;;;;;;23.57;50.46;101649.93;1713300;83;21066;-50
2021/09/17 01:05:50;;;;;;;3.20;2.25;;;;;;;23.58;50.46;101646.30;1714638;83;20999;-48
2021/09/17 01:08:16;;;;;;;3.95;2.37;;;;;;;23.59;50.53;101642.72;1721835;83;21058;-47
2021/09/17 01:10:44;;;;;;;4.78;2.62;;;;;;;23.60;50.82;101636.44;1718644;83;21023;-51
2021/09/17 01:13:11;;;;;;;2.95;2.30;;;;;;;23.61;51.13;101636.83;1702040;83;21066;-48
2021/09/17 01:15:40;;;;;;;4.65;2.85;;;;;;;23.63;51.59;101635.40;1713181;83;21601;-47
2021/09/17 01:18:07;;;;;;;3.55;2.20;;;;;;;23.64;52.45;101637.95;1714543;83;21109;-52
2021/09/17 01:20:36;;;;;;;3.95;1.85;;;;;;;23.68;53.24;101635.98;1714871;83;21043;-48
2021/09/17 01:23:04;;;;;;;2.40;2.20;;;;;;;23.70;53.77;101628.27;1714994;83;21031;-47
2021/09/17 01:25:31;;;;;;;3.72;2.25;;;;;;;23.75;54.11;101635.49;1714945;83;21061;-47
2021/09/17 01:27:59;;;;;;;4.33;1.90;;;;;;;23.79;54.74;101633.02;1764965;80;21018;-49
2021/09/17 01:30:26;;;;;;;2.55;2.25;;;;;;;23.85;54.89;101629.98;1767343;80;20991;-47
2021/09/17 01:32:53;;;;;;;5.08;2.35;;;;;;;23.91;54.93;101626.93;1765625;80;21053;-50
2021/09/17 01:35:22;;;;;;;3.60;2.15;;;;;;;23.97;55.14;101619.03;1765980;80;21064;-52
2021/09/17 01:37:48;;;;;;;4.40;2.58;;;;;;;24.03;55.16;101624.85;1775763;80;21021;-47
2021/09/17 01:40:15;;;;;;;4.72;2.52;;;;;;;24.09;55.11;101618.30;1767638;80;21018;-52
2021/09/17 01:42:42;;;;;;;7.35;2.58;;;;;;;24.14;55.00;101614.39;1766481;80;21566;-50
2021/09/17 01:45:10;;;;;;;3.67;2.17;;;;;;;24.22;55.13;101621.39;1765710;80;21065;-52
2021/09/17 01:47:38;;;;;;;5.37;2.10;;;;;;;24.28;55.03;101619.30;1776144;80;21486;-48
2021/09/17 01:50:07;;;;;;;4.00;2.20;;;;;;;24.33;54.89;101619.84;1768683;80;21517;-48
2021/09/17 01:52:33;;;;;;;3.67;2.15;;;;;;;24.37;54.85;101617.36;1767604;80;21513;-48
2021/09/17 01:55:02;;;;;;;4.12;2.60;;;;;;;24.41;54.69;101612.20;1765270;80;21009;-50
2021/09/17 01:57:30;;;;;;;4.22;2.12;;;;;;;24.46;54.56;101614.94;1765613;80;21018;-52
2021/09/17 01:59:58;;;;;;;5.15;2.10;;;;;;;24.50;54.50;101606.30;1767976;80;21429;-48
2021/09/17 02:02:24;;;;;;;4.22;2.77;;;;;;;24.53;54.60;101607.41;1767365;80;20974;-47
2021/09/17 02:04:51;;;;;;;4.35;2.05;;;;;;;24.57;54.63;101599.13;1768487;80;20982;-50
2021/09/17 02:07:19;;;;;;;2.70;2.25;;;;;;;24.60;54.51;101600.73;1773950;80;21037;-52
2021/09/17 02:09:46;;;;;;;2.37;2.17;;;;;;;24.64;54.43;101602.23;1769072;80;21014;-47
2021/09/17 02:12:14;;;;;;;3.02;2.25;;;;;;;24.67;54.46;101591.36;1768460;80;21574;-51
2021/09/17 02:14:41;;;;;;;6.25;2.20;;;;;;;24.69;54.25;101590.81;1766338;80;20993;-50
2021/09/17 02:17:08;;;;;;;6.03;2.55;;;;;;;24.71;54.07;101587.07;1765785;80;20994;-52
2021/09/17 02:19:35;;;;;;;3.47;2.10;;;;;;;24.74;54.14;101588.71;1767382;80;21490;-51
2021/09/17 02:22:01;;;;;;;2.85;2.00;;;;;;;24.76;54.11;101592.13;1768023;80;20979;-49
2021/09/17 02:24:28;;;;;;;2.50;2.30;;;;;;;24.80;53.66;101584.30;1766791;80;21041;-48
2021/09/17 02:26:54;;;;;;;1.95;1.80;;;;;;;24.80;53.66;101584.30;1766004;80;21009;-51
2021/09/17 02:29:23;;;;;;;4.00;2.37;;;;;;;24.80;53.66;101585.64;1765573;80;21021;-48
2021/09/17 02:31:49;;;;;;;2.37;2.15;;;;;;;24.82;53.52;101583.72;1767694;80;21554;-48
2021/09/17 02:34:16;;;;;;;5.60;2.42;;;;;;;24.83;53.56;101581.45;1769103;80;21013;-51
2021/09/17 02:36:43;;;;;;;3.37;2.30;;;;;;;24.86;53.52;101585.22;1774767;80;21041;-48
2021/09/17 02:39:13;;;;;;;5.08;2.30;;;;;;;24.87;53.60;101580.28;1765877;80;21056;-49
2021/09/17 02:41:39;;;;;;;8.83;2.58;;;;;;;24.87;53.35;101582.95;1764459;80;21346;-50
2021/09/17 02:44:06;;;;;;;5.47;2.35;;;;;;;24.90;53.28;101588.05;1768670;80;21023;-50
2021/09/17 02:46:33;;;;;;;2.87;1.90;;;;;;;24.91;53.22;101591.09;1766959;80;21050;-52
2021/09/17 02:49:01;;;;;;;6.22;2.50;;;;;;;24.92;52.95;101587.45;1765917;80;21057;-48
2021/09/17 02:51:28;;;;;;;5.42;2.35;;;;;;;24.93;52.90;101584.72;1765746;80;21069;-47
2021/09/17 02:53:55;;;;;;;2.62;2.22;;;;;;;24.93;52.97;101588.71;1767375;80;21053;-46
2021/09/17 02:56:23;;;;;;;10.32;2.35;;;;;;;24.95;52.88;101577.95;1768484;80;21037;-52
2021/09/17 02:58:52;;;;;;;3.60;2.10;;;;;;;24.94;52.27;101574.42;1769065;80;20998;-47
2021/09/17 03:01:18;;;;;;;5.05;2.47;;;;;;;24.94;52.27;101574.42;1768919;80;21505;-47
2021/09/17 03:03:45;;;;;;;3.52;2.30;;;;;;;24.97;51.87;101576.89;1768805;80;21066;-47
2021/09/17 03:06:13;;;;;;;8.05;2.27;;;;;;;24.99;51.83;101580.77;1768002;80;21502;-47
2021/09/17 03:08:40;;;;;;;3.77;2.37;;;;;;;25.00;51.48;101570.48;1766529;80;21100;-47
2021/09/17 03:11:06;;;;;;;3.95;2.83;;;;;;;25.01;51.35;101566.88;1768961;80;21025;-50
2021/09/17 03:13:35;;;;;;;5.12;2.95;;;;;;;25.01;51.31;101563.73;1776287;80;21065;-47
2021/09/17 03:16:05;;;;;;;3.90;2.08;;;;;;;25.02;51.37;101561.43;1759073;80;21053;-47
2021/09/17 03:18:33;;;;;;;3.02;2.30;;;;;;;25.03;51.22;101567.62;1765758;80;21041;-52
2021/09/17 03:21:01;;;;;;;4.97;2.42;;;;;;;25.02;51.08;101559.24;1765957;80;21074;-46
2021/09/17 03:23:30;;;;;;;4.60;2.27;;;;;;;25.01;51.12;101564.20;1768706;80;21038;-47
2021/09/17 03:25:57;;;;;;;5.92;2.58;;;;;;;25.00;50.99;101569.14;1767204;80;21034;-52
2021/09/17 03:28:25;;;;;;;3.00;2.20;;;;;;;24.98;50.61;101564.41;1766808;80;20935;-47
2021/09/17 03:30:51;;;;;;;3.98;2.15;;;;;;;24.95;49.24;101557.98;1765470;80;20986;-47
2021/09/17 03:33:18;;;;;;;5.30;2.02;;;;;;;24.93;48.89;101562.55;1779679;80;20958;-47
2021/09/17 03:35:45;;;;;;;5.00;2.40;;;;;;;24.92;48.53;101556.38;1765561;80;21060;-49
2021/09/17 03:38:14;;;;;;;5.30;2.00;;;;;;;24.87;48.18;101559.81;1765688;80;21077;-47
2021/09/17 03:40:42;;;;;;;2.33;2.08;;;;;;;24.87;48.18;101559.81;1782091;80;22435;-47
2021/09/17 03:43:09;;;;;;;3.55;1.80;;;;;;;24.89;47.96;101562.39;1767320;80;21046;-47
2021/09/17 03:45:36;;;;;;;3.80;2.27;;;;;;;24.87;47.32;101558.98;1776968;80;21505;-47
2021/09/17 03:48:08;;;;;;;2.40;2.17;;;;;;;24.84;47.30;101564.03;1764967;80;21009;-47
2021/09/17 03:50:35;;;;;;;5.60;2.55;;;;;;;24.82;47.17;101558.43;1765706;80;20981;-50
2021/09/17 03:53:02;;;;;;;4.10;2.10;;;;;;;24.80;46.91;101557.69;1766993;80;21041;-48
2021/09/17 03:55:31;;;;;;;3.72;2.40;;;;;;;24.78;46.96;101560.93;1769236;80;21013;-51
2021/09/17 03:57:58;;;;;;;3.22;1.82;;;;;;;24.75;46.37;101558.50;1768584;80;21079;-51
2021/09/17 04:00:26;;;;;;;4.53;2.35;;;;;;;24.73;46.34;101561.70;1750043;80;21549;-48
2021/09/17 04:02:53;;;;;;;4.58;2.25;;;;;;;24.71;46.06;101554.30;1775203;80;20979;-50
2021/09/17 04:05:19;;;;;;;4.35;2.33;;;;;;;24.69;45.51;101554.89;1765814;80;20993;-49
2021/09/17 04:07:46;;;;;;;4.60;2.02;;;;;;;24.68;45.88;101557.16;1766361;80;21001;-46
2021/09/17 04:10:16;;;;;;;4.15;2.15;;;;;;;24.66;46.69;101559.93;1773052;80;21534;-51
2021/09/17 04:12:43;;;;;;;3.80;2.10;;;;;;;24.66;47.14;101552.42;1768715;80;20994;-47
2021/09/17 04:15:12;;;;;;;5.00;2.50;;;;;;;24.65;47.48;101553.36;1769206;80;21005;-52
2021/09/17 04:17:39;;;;;;;5.05;2.58;;;;;;;24.65;47.36;101552.03;1767819;80;20987;-47
2021/09/17 04:20:08;;;;;;;6.37;2.10;;;;;;;24.66;47.16;101557.74;1765704;80;21513;-52
2021/09/17 04:22:36;;;;;;;3.15;2.12;;;;;;;24.68;47.39;101554.03;1765854;80;21080;-50
2021/09/17 04:25:07;;;;;;;4.08;2.42;;;;;;;24.70;47.62;101557.91;1767128;80;21017;-47
2021/09/17 04:27:35;;;;;;;3.47;2.12;;;;;;;24.73;47.17;101559.05;1768832;80;21010;-46
2021/09/17 04:30:04;;;;;;;3.52;2.15;;;;;;;24.76;46.44;101556.19;1776974;80;21549;-49
2021/09/17 04:32:31;;;;;;;4.62;2.20;;;;;;;24.77;46.36;101550.75;1771645;80;21017;-48
2021/09/17 04:34:58;;;;;;;4.33;2.65;;;;;;;24.78;46.24;101551.61;1764551;80;21013;-51
2021/09/17 04:37:25;;;;;;;4.17;2.22;;;;;;;24.80;46.32;101549.70;1766412;80;21493;-47
2021/09/17 04:39:52;;;;;;;3.30;2.25;;;;;;;24.80;46.85;101543.91;1768665;80;21013;-47
2021/09/17 04:42:20;;;;;;;4.22;2.08;;;;;;;24.82;47.02;101538.47;1769307;80;21009;-47
2021/09/17 04:44:46;;;;;;;4.12;2.22;;;;;;;24.82;46.66;101534.47;1769086;80;21010;-49
2021/09/17 04:47:13;;;;;;;5.70;2.08;;;;;;;24.82;46.81;101533.14;1769221;80;21006;-46
2021/09/17 04:49:40;;;;;;;3.55;2.40;;;;;;;24.82;46.89;101529.15;1768302;80;20994;-50
2021/09/17 04:52:08;;;;;;;4.17;2.05;;;;;;;24.82;46.45;101520.69;1771016;80;21525;-46
2021/09/17 04:54:35;;;;;;;1.72;1.60;;;;;;;24.83;45.78;101529.54;1770714;80;21026;-47
2021/09/17 04:57:05;;;;;;;4.35;2.02;;;;;;;24.85;45.61;101529.78;1772824;80;21530;-51
2021/09/17 04:59:32;;;;;;;5.42;2.10;;;;;;;24.86;44.90;101531.97;1773999;80;21001;-47
2021/09/17 05:01:58;;;;;;;3.52;1.72;;;;;;;24.86;44.90;101531.97;1772365;80;21490;-54
2021/09/17 05:04:25;;;;;;;5.62;1.95;;;;;;;24.88;44.77;101532.25;1779772;80;20974;-52
2021/09/17 05:06:53;;;;;;;3.08;2.15;;;;;;;24.90;45.04;101537.45;1771338;80;21477;-47
2021/09/17 05:09:20;;;;;;;4.05;2.00;;;;;;;24.93;45.10;101539.92;1773073;80;21361;-50
2021/09/17 05:11:48;;;;;;;3.92;2.00;;;;;;;24.94;44.55;101538.95;1774206;80;21037;-49
2021/09/17 05:14:15;;;;;;;5.83;2.42;;;;;;;24.94;44.84;101538.95;1774585;80;21005;-47
2021/09/17 05:16:47;;;;;;;3.62;2.10;;;;;;;24.96;44.82;101538.36;1774532;80;21794;-48
2021/09/17 05:19:14;;;;;;;3.90;2.22;;;;;;;24.96;44.20;101542.36;1774456;80;21466;-48
2021/09/17 05:21:43;;;;;;;4.78;2.30;;;;;;;24.98;44.31;101548.43;1774157;80;21057;-48
2021/09/17 05:24:11;;;;;;;3.52;2.00;;;;;;;24.99;44.05;101544.83;1784777;80;21020;-51
2021/09/17 05:26:38;;;;;;;4.97;2.08;;;;;;;25.00;44.71;101552.70;1775967;80;21053;-51
2021/09/17 05:29:06;;;;;;;5.20;1.90;;;;;;;25.02;44.25;101557.44;1780434;80;21041;-53
2021/09/17 05:31:34;;;;;;;3.95;2.10;;;;;;;25.03;44.21;101552.97;1774453;80;21493;-52
2021/09/17 05:34:00;;;;;;;6.87;2.10;;;;;;;25.06;43.95;101556.73;1773079;80;21482;-50
2021/09/17 05:36:28;;;;;;;11.45;2.60;;;;;;;25.07;44.28;101547.80;1771452;80;21001;-53
2021/09/17 05:38:55;;;;;;;3.62;2.30;;;;;;;25.09;44.65;101548.55;1771256;80;21450;-50
2021/09/17 05:41:22;;;;;;;7.00;2.55;;;;;;;25.13;44.41;101545.19;1773685;80;21888;-48
2021/09/17 05:43:51;;;;;;;4.35;2.20;;;;;;;25.16;44.23;101536.52;1772753;80;21506;-49
2021/09/17 05:46:18;;;;;;;3.12;2.00;;;;;;;25.20;43.91;101539.34;1785683;80;20974;-49
2021/09/17 05:48:46;;;;;;;6.10;1.90;;;;;;;25.25;43.73;101538.52;1775787;80;21009;-49
2021/09/17 05:51:12;;;;;;;6.83;2.50;;;;;;;25.31;43.40;101542.08;1771349;80;21022;-49
2021/09/17 05:53:41;;;;;;;2.77;2.30;;;;;;;25.37;43.54;101540.31;1768834;80;21045;-51
2021/09/17 05:56:07;;;;;;;3.47;1.85;;;;;;;25.43;44.11;101545.23;1769035;80;21014;-49
2021/09/17 05:58:37;;;;;;;4.83;2.20;;;;;;;25.50;44.29;101537.66;1766764;80;21014;-50
2021/09/17 06:01:04;;;;;;;2.92;2.00;;;;;;;25.57;44.50;101537.14;1765545;80;21001;-51
2021/09/17 06:03:31;;;;;;;2.55;2.00;;;;;;;25.65;44.70;101541.44;1766086;80;21046;-49
2021/09/17 06:05:58;;;;;;;3.77;2.00;;;;;;;25.71;43.99;101534.33;1777124;80;21014;-49
2021/09/17 06:08:26;;;;;;;3.55;2.02;;;;;;;25.71;44.58;101528.13;1775209;80;21565;-49
2021/09/17 06:10:53;;;;;;;5.85;2.50;;;;;;;25.75;44.24;101529.14;1768552;80;21522;-49
2021/09/17 06:13:20;;;;;;;5.42;2.27;;;;;;;25.75;44.24;101529.14;1772763;80;21002;-47
2021/09/17 06:15:46;;;;;;;8.68;2.10;;;;;;;25.79;44.31;101530.62;1778098;80;21014;-50
2021/09/17 06:18:15;;;;;;;4.50;2.35;;;;;;;25.87;44.08;101531.86;1767702;80;21045;-49
2021/09/17 06:20:43;;;;;;;4.58;2.15;;;;;;;25.87;44.08;101531.86;1767524;80;20983;-49
2021/09/17 06:23:10;;;;;;;3.85;2.02;;;;;;;25.90;45.06;101535.64;1766790;80;21545;-52
2021/09/17 06:25:38;;;;;;;3.47;2.10;;;;;;;25.93;44.78;101530.07;1765848;80;20998;-47
2021/09/17 06:28:06;;;;;;;3.60;2.47;;;;;;;25.94;45.11;101526.45;1765598;80;21063;-48
2021/09/17 06:30:33;;;;;;;3.60;2.27;;;;;;;25.94;45.44;101516.65;1767681;80;21520;-47
2021/09/17 06:32:59;;;;;;;12.28;3.47;;;;;;;25.98;45.94;101518.59;1768996;80;21497;-50
2021/09/17 06:35:26;;;;;;;3.05;2.35;;;;;;;26.00;45.93;101520.67;1769079;80;21002;-47
2021/09/17 06:37:55;;;;;;;5.45;2.35;;;;;;;26.03;46.58;101515.13;1768776;80;21471;-50
2021/09/17 06:40:24;;;;;;;5.60;2.50;;;;;;;26.03;46.58;101515.13;1768898;80;21490;-47
2021/09/17 06:42:52;;;;;;;8.78;2.75;;;;;;;26.05;46.70;101514.52;1767783;80;21033;-47
2021/09/17 06:45:19;;;;;;;28.85;3.95;;;;;;;26.11;46.54;101516.27;1769679;80;20982;-46
2021/09/17 06:47:54;;;;;;;4.10;2.20;;;;;;;26.14;46.81;101515.19;1768470;80;21034;-49
2021/09/17 06:50:23;;;;;;;4.67;2.35;;;;;;;26.18;47.06;101517.52;1767062;80;21009;-48
2021/09/17 06:52:52;;;;;;;4.25;2.40;;;;;;;26.22;46.76;101520.80;1778505;80;21085;-47
2021/09/17 06:55:21;;;;;;;2.67;2.20;;;;;;;26.26;46.67;101519.60;1771229;80;21080;-48
2021/09/17 06:57:52;;;;;;;3.52;2.00;;;;;;;26.29;46.54;101516.72;1766196;80;20977;-47
2021/09/17 07:00:21;;;;;;;3.60;2.10;;;;;;;26.31;46.71;101520.12;1728521;83;21097;-50
2021/09/17 07:02:48;;;;;;;4.42;2.50;;;;;;;26.32;46.92;101517.80;1728294;83;21005;-49
2021/09/17 07:05:16;;;;;;;3.30;2.22;;;;;;;26.35;47.28;101524.27;1729981;83;21022;-49
2021/09/17 07:07:43;;;;;;;4.55;2.30;;;;;;;26.34;47.14;101515.40;1727662;83;21056;-48
2021/09/17 07:10:11;;;;;;;3.05;2.00;;;;;;;26.36;47.22;101515.27;1728121;83;21064;-53
2021/09/17 07:12:40;;;;;;;5.47;2.22;;;;;;;26.36;47.25;101521.47;1728220;83;21545;-49
2021/09/17 07:15:08;;;;;;;4.83;2.40;;;;;;;26.43;47.05;101529.87;1728389;83;21044;-49
2021/09/17 07:17:34;;;;;;;4.50;2.37;;;;;;;26.41;47.53;101527.80;1728591;83;21517;-52
2021/09/17 07:20:02;;;;;;;10.08;2.60;;;;;;;26.43;47.78;101522.72;1727951;83;20983;-48
2021/09/17 07:22:29;;;;;;;8.83;2.92;;;;;;;26.47;47.60;101530.00;1727667;83;21061;-49
2021/09/17 07:24:55;;;;;;;2.65;2.08;;;;;;;26.50;47.74;101527.12;1727466;83;21064;-48
2021/09/17 07:27:22;;;;;;;9.53;2.50;;;;;;;26.54;47.79;101528.08;1728209;83;21627;-52
2021/09/17 07:29:49;;;;;;;7.33;1.95;;;;;;;26.57;47.96;101527.00;1727771;83;21036;-52
2021/09/17 07:32:16;;;;;;;5.72;2.55;;;;;;;26.58;47.49;101523.38;1729986;83;21088;-51
2021/09/17 07:34:44;;;;;;;5.40;2.60;;;;;;;26.59;47.40;101516.58;1727771;83;21001;-51
2021/09/17 07:37:11;;;;;;;5.78;2.50;;;;;;;26.61;47.47;101515.98;1730678;83;21636;-48
2021/09/17 07:39:38;;;;;;;4.12;2.27;;;;;;;26.63;47.88;101509.17;1727522;83;21029;-50
2021/09/17 07:42:07;;;;;;;20.25;4.00;;;;;;;26.65;47.92;101504.57;1727672;83;20987;-49
2021/09/17 07:44:36;;;;;;;40.25;6.20;;;;;;;26.68;47.63;101492.34;1725621;83;21107;-51
2021/09/17 07:47:05;;;;;;;6.28;2.67;;;;;;;26.70;47.76;101490.39;1728070;83;21033;-47
2021/09/17 07:49:32;;;;;;;5.00;2.80;;;;;;;26.73;47.42;101500.85;1728141;83;21065;-47
2021/09/17 07:51:59;;;;;;;3.47;2.35;;;;;;;26.76;47.37;101499.77;1738217;82;21072;-46
2021/09/17 07:54:27;;;;;;;5.00;2.17;;;;;;;26.77;47.90;101502.31;1740566;82;21058;-53
2021/09/17 07:56:54;;;;;;;4.12;2.40;;;;;;;26.80;47.50;101502.09;1755044;80;20982;-49
2021/09/17 07:59:21;;;;;;;5.40;2.33;;;;;;;26.83;47.08;101496.50;1771230;80;21017;-50
2021/09/17 08:01:48;;;;;;;3.70;2.42;;;;;;;26.85;47.21;101497.73;1775291;80;21506;-50
2021/09/17 08:04:15;;;;;;;5.28;2.47;;;;;;;26.86;47.57;101498.09;1781453;80;21053;-50
2021/09/17 08:06:42;;;;;;;4.80;2.50;;;;;;;26.86;47.86;101494.94;1783231;80;21486;-48
2021/09/17 08:09:08;;;;;;;6.50;2.75;;;;;;;26.91;47.23;101496.78;1773290;80;20961;-52
2021/09/17 08:11:35;;;;;;;5.10;2.30;;;;;;;26.95;46.78;101496.91;1771168;80;21065;-47
2021/09/17 08:14:02;;;;;;;4.67;2.30;;;;;;;26.95;46.73;101495.56;1775507;80;21025;-48
2021/09/17 08:16:29;;;;;;;4.72;2.62;;;;;;;26.97;46.81;101494.96;1771796;80;21025;-48
2021/09/17 08:18:56;;;;;;;7.22;3.10;;;;;;;26.98;46.90;101488.63;1771301;80;21453;-49
2021/09/17 08:21:23;;;;;;;4.37;2.58;;;;;;;27.00;46.84;101493.38;1772247;80;21045;-48
2021/09/17 08:23:50;;;;;;;4.22;2.40;;;;;;;26.98;46.88;101488.63;1771470;80;20989;-50
2021/09/17 08:26:18;;;;;;;7.80;2.77;;;;;;;26.98;46.96;101485.11;1774850;80;21021;-50
2021/09/17 08:28:45;;;;;;;6.67;2.62;;;;;;;26.99;47.46;101482.34;1774144;80;21025;-47
2021/09/17 08:31:13;;;;;;;4.55;2.37;;;;;;;27.00;47.41;101481.34;1774745;80;21546;-49
2021/09/17 08:33:39;;;;;;;6.53;2.95;;;;;;;27.04;47.17;101478.80;1773744;80;21037;-47
2021/09/17 08:36:09;;;;;;;5.28;2.50;;;;;;;27.03;47.47;101485.13;1771107;80;21517;-47
2021/09/17 08:38:37;;;;;;;24.05;4.22;;;;;;;27.02;48.07;101479.41;1771363;80;21029;-47
2021/09/17 08:41:05;;;;;;;10.10;2.75;;;;;;;27.02;48.07;101472.73;1772407;80;21012;-46
2021/09/17 08:43:32;;;;;;;4.35;2.42;;;;;;;27.02;48.37;101467.86;1773782;80;21026;-47
2021/09/17 08:46:00;;;;;;;5.30;2.15;;;;;;;27.05;48.71;101469.83;1772202;80;21041;-51
2021/09/17 08:48:29;;;;;;;4.47;2.70;;;;;;;27.11;47.99;101472.02;1776561;80;21041;-49
2021/09/17 08:50:56;;;;;;;4.08;2.50;;;;;;;27.11;47.87;101467.15;1768716;80;20974;-47
2021/09/17 08:53:24;;;;;;;5.75;3.27;;;;;;;27.13;48.22;101466.06;1766858;80;21040;-48
2021/09/17 08:55:52;;;;;;;4.78;2.42;;;;;;;27.16;48.18;101465.80;1768781;80;21526;-48
2021/09/17 08:58:19;;;;;;;5.53;2.85;;;;;;;27.17;47.97;101463.51;1769194;80;21072;-47
2021/09/17 09:00:46;;;;;;;5.85;2.30;;;;;;;27.19;48.07;101465.57;1775848;80;21049;-47
2021/09/17 09:03:32;;;;;;;5.72;2.55;;;;;;;27.20;48.06;101469.10;1777401;80;21015;-47
2021/09/17 09:06:15;;;;;;;4.28;2.58;;;;;;;27.22;48.55;101467.98;1700111;84;21038;-49
2021/09/17 09:08:42;;;;;;;8.50;2.60;;;;;;;27.25;48.64;101473.57;1757854;81;21036;-49
2021/09/17 09:11:25;;;;;;;8.35;2.65;;;;;;;27.26;48.03;101469.94;1760206;81;21507;-46
2021/09/17 09:14:08;;;;;;;4.00;2.35;;;;;;;27.25;47.98;101470.42;1759923;81;21542;-49
2021/09/17 09:16:40;;;;;;;4.72;2.27;;;;;;;27.26;47.90;101472.14;1759938;81;21601;-49
2021/09/17 09:19:23;;;;;;;3.22;2.35;;;;;;;27.26;48.06;101473.48;1694753;84;21074;-47
2021/09/17 09:22:06;;;;;;;3.90;2.50;;;;;;;27.29;48.25;101470.54;1659236;86;21035;-48
2021/09/17 09:24:39;;;;;;;5.53;2.42;;;;;;;27.33;48.05;101463.97;1579772;90;21062;-49
2021/09/17 09:27:16;;;;;;;4.17;2.10;;;;;;;27.36;48.46;101463.77;1610330;88;21523;-49
2021/09/17 09:29:47;;;;;;;6.45;2.35;;;;;;;27.38;48.58;101459.16;1613632;88;21062;-51
2021/09/17 09:32:29;;;;;;;4.80;2.60;;;;;;;27.42;48.44;101461.56;1557770;91;21148;-48
2021/09/17 09:34:57;;;;;;;5.08;2.30;;;;;;;27.45;48.07;101464.00;1555910;91;21118;-48
2021/09/17 09:37:29;;;;;;;4.15;2.40;;;;;;;27.44;47.76;101462.29;1543054;91;21582;-48
2021/09/17 09:39:58;;;;;;;;;;;;;;;27.45;47.80;101458.66;1555610;91;21086;-50
2021/09/17 09:42:39;;;;;;;4.25;2.50;;;;;;;27.45;48.05;101454.65;1553324;91;20471;-47
2021/09/17 09:45:19;;;;;;;4.97;2.55;;;;;;;27.45;47.91;101455.98;1551848;91;21091;-48
2021/09/17 09:47:55;;;;;;;6.17;2.45;;;;;;;27.46;48.29;101452.32;1553621;91;21066;-50
2021/09/17 09:50:25;;;;;;;6.58;2.50;;;;;;;27.48;48.23;101447.70;1528681;93;21597;-48
2021/09/17 09:52:57;;;;;;;5.33;2.47;;;;;;;27.48;48.41;101442.35;1512697;93;21161;-47
2021/09/17 09:55:23;;;;;;;5.40;2.70;;;;;;;27.51;48.35;101448.80;1493428;95;21096;-50
2021/09/17 09:57:50;;;;;;;5.33;2.87;;;;;;;27.51;48.39;101441.64;1495547;95;21154;-48
2021/09/17 10:00:19;;;;;;;5.97;2.65;;;;;;;27.52;48.55;101445.14;1497431;95;21079;-49
2021/09/17 10:02:45;;;;;;;4.75;2.65;;;;;;;27.50;48.74;101447.94;1497486;95;21094;-49
2021/09/17 10:05:15;;;;;;;9.40;2.70;;;;;;;27.48;48.57;101448.55;1495548;95;21119;-51
2021/09/17 10:07:43;;;;;;;6.15;2.75;;;;;;;27.49;48.36;101450.75;1496097;95;21628;-49
2021/09/17 10:10:12;;;;;;;6.05;2.75;;;;;;;27.50;48.51;101451.09;1496808;95;21163;-52
2021/09/17 10:12:39;;;;;;;5.83;2.70;;;;;;;27.53;48.74;101445.03;1497641;95;21113;-46
2021/09/17 10:15:09;;;;;;;7.30;3.00;;;;;;;27.55;48.75;101439.08;1497490;95;21593;-48
2021/09/17 10:17:38;;;;;;;6.10;2.77;;;;;;;27.59;48.59;101430.30;1502424;95;21106;-47
2021/09/17 10:20:08;;;;;;;4.62;3.15;;;;;;;27.61;48.69;101428.36;1509200;95;21656;-48
2021/09/17 10:22:45;;;;;;;7.28;2.95;;;;;;;27.63;48.77;101427.27;1466029;96;21087;-49
2021/09/17 10:25:17;;;;;;;6.35;3.40;;;;;;;27.66;48.63;101424.80;1477457;97;21177;-48
2021/09/17 10:28:02;;;;;;;8.25;3.67;;;;;;;27.68;48.60;101417.50;1474380;97;21142;-49
2021/09/17 10:30:36;;;;;;;5.97;3.45;;;;;;;27.70;48.78;101420.93;1503007;94;21099;-47
2021/09/17 10:33:03;;;;;;;4.28;2.60;;;;;;;27.73;48.89;101412.63;1502709;95;21172;-48
2021/09/17 10:35:43;;;;;;;9.78;3.15;;;;;;;27.75;49.23;101405.33;1502850;95;21655;-47
2021/09/17 10:38:27;;;;;;;5.12;2.60;;;;;;;27.75;49.20;101408.86;1502035;95;21123;-49
2021/09/17 10:41:03;;;;;;;6.05;2.98;;;;;;;27.75;49.09;101416.03;1501048;95;21111;-52
2021/09/17 10:43:43;;;;;;;6.65;3.02;;;;;;;27.73;49.28;101412.63;1502887;95;21036;-47
2021/09/17 10:46:23;;;;;;;3.95;2.58;;;;;;;27.72;49.48;101409.62;1512156;91;21076;-49
2021/09/17 10:48:56;;;;;;;4.37;2.55;;;;;;;27.73;49.74;101409.95;1572357;90;21123;-49
2021/09/17 10:51:38;;;;;;;11.55;3.10;;;;;;;27.75;49.64;101402.66;1578518;89;21089;-48
2021/09/17 10:54:12;;;;;;;6.67;3.00;;;;;;;27.75;49.77;101392.81;1610216;87;21085;-52
2021/09/17 10:56:53;;;;;;;6.78;3.08;;;;;;;27.77;49.94;101396.69;1609480;89;21086;-48
2021/09/17 10:59:25;;;;;;;7.60;2.87;;;;;;;27.79;49.88;101390.73;1586401;88;21046;-50
2021/09/17 11:02:06;;;;;;;8.30;3.22;;;;;;;27.78;50.18;101387.70;1584723;90;21589;-49
2021/09/17 11:04:43;;;;;;;7.67;2.92;;;;;;;27.80;50.46;101380.41;1584416;90;21141;-46
2021/09/17 11:07:27;;;;;;;7.30;3.00;;;;;;;27.82;50.33;101380.61;1584974;90;21095;-47
2021/09/17 11:09:55;;;;;;;4.78;2.98;;;;;;;27.83;50.15;101367.62;1585339;89;21102;-50
2021/09/17 11:12:27;;;;;;;6.75;3.40;;;;;;;27.86;50.02;101368.67;1585139;90;21106;-48
2021/09/17 11:15:19;;;;;;;7.00;3.02;;;;;;;27.88;50.24;101370.73;1585326;90;21105;-50
2021/09/17 11:17:50;;;;;;;5.08;2.90;;;;;;;27.88;50.46;101364.05;1585259;90;21034;-50
2021/09/17 11:20:23;;;;;;;6.70;2.87;;;;;;;27.89;50.26;101362.23;1653033;86;21496;-48
2021/09/17 11:23:01;;;;;;;5.45;3.10;;;;;;;27.91;50.36;101360.27;1583370;89;21124;-50
2021/09/17 11:25:33;;;;;;;5.33;2.95;;;;;;;27.93;50.59;101360.98;1543347;91;21236;-50
2021/09/17 11:28:02;;;;;;;6.28;3.15;;;;;;;27.94;50.24;101356.02;1544710;92;21092;-50
2021/09/17 11:30:30;;;;;;;7.58;3.60;;;;;;;27.95;50.39;101351.00;1546913;92;21086;-50
2021/09/17 11:32:58;;;;;;;13.03;3.90;;;;;;;27.99;50.38;101351.14;1520047;94;21278;-47